| time (UTC) | temp F | wind direction | speed knots | gust knots | rain 1hr in | rain 24hr in | rain mn in | humidity % | barometer mb |
| 20260510104543 | 50 | 46 | 2.6 | 7.8 | 0.00 | 0.24 | 0.03 | 92 | 1011.4 |
| 20260510104041 | 50 | 60 | 4.3 | 7.8 | 0.00 | 0.24 | 0.03 | 93 | 1011.2 |
| 20260510103543 | 50 | 44 | 2.6 | 7.8 | 0.00 | 0.24 | 0.03 | 93 | 1011.2 |
| 20260510103043 | 50 | 348 | 3.5 | 7.8 | 0.00 | 0.24 | 0.03 | 94 | 1011.1 |
| 20260510102537 | 51 | 40 | 2.6 | 5.2 | 0.00 | 0.24 | 0.03 | 94 | 1010.8 |
| 20260510102036 | 51 | 44 | 3.5 | 8.7 | 0.00 | 0.24 | 0.03 | 94 | 1010.7 |
| 20260510101536 | 51 | 46 | 3.5 | 8.7 | 0.00 | 0.24 | 0.03 | 94 | 1010.6 |
| 20260510101034 | 51 | 53 | 4.3 | 8.7 | 0.00 | 0.24 | 0.03 | 94 | 1010.6 |
| 20260510100535 | 51 | 59 | 4.3 | 7.8 | 0.00 | 0.24 | 0.03 | 94 | 1010.5 |
| 20260510100036 | 51 | 38 | 2.6 | 7.8 | 0.00 | 0.24 | 0.03 | 94 | 1010.5 |
| 20260510095532 | 51 | 37 | 3.5 | 8.7 | 0.00 | 0.25 | 0.03 | 94 | 1010.3 |
| 20260510095031 | 51 | 34 | 3.5 | 8.7 | 0.00 | 0.25 | 0.03 | 94 | 1010.2 |
| 20260510094539 | 51 | 40 | 5.2 | 8.7 | 0.00 | 0.25 | 0.03 | 94 | 1010.2 |
| 20260510094029 | 51 | 19 | 3.5 | 7.8 | 0.00 | 0.25 | 0.03 | 94 | 1010.2 |
| 20260510093528 | 51 | 15 | 3.5 | 8.7 | 0.00 | 0.25 | 0.03 | 93 | 1010.1 |
| 20260510093028 | 51 | 23 | 4.3 | 8.7 | 0.00 | 0.25 | 0.03 | 93 | 1010.0 |
| 20260510092527 | 51 | 17 | 5.2 | 8.7 | 0.00 | 0.25 | 0.03 | 93 | 1009.9 |
| 20260510092025 | 52 | 40 | 5.2 | 7.8 | 0.00 | 0.25 | 0.03 | 93 | 1009.8 |
| 20260510091526 | 52 | 38 | 1.7 | 5.2 | 0.00 | 0.25 | 0.03 | 92 | 1009.7 |
| 20260510091023 | 52 | 304 | 2.6 | 5.2 | 0.00 | 0.25 | 0.03 | 92 | 1009.7 |
| 20260510090522 | 52 | 351 | 1.7 | 4.3 | 0.01 | 0.25 | 0.03 | 92 | 1009.6 |
| 20260510090022 | 52 | 110 | 0.9 | 3.5 | 0.01 | 0.25 | 0.03 | 92 | 1009.6 |
| 20260510085521 | 52 | 338 | 0.9 | 3.5 | 0.01 | 0.26 | 0.03 | 92 | 1009.6 |
| 20260510085020 | 53 | 355 | 0.0 | 3.5 | 0.01 | 0.26 | 0.03 | 92 | 1009.4 |
| 20260510084521 | 53 | 317 | 0.0 | 3.5 | 0.01 | 0.26 | 0.03 | 92 | 1009.3 |
| 20260510084019 | 53 | 296 | 0.9 | 2.6 | 0.01 | 0.26 | 0.03 | 92 | 1009.2 |
| 20260510083519 | 53 | 296 | 0.9 | 2.6 | 0.01 | 0.26 | 0.03 | 92 | 1009.2 |
| 20260510083019 | 53 | 296 | 0.0 | 2.6 | 0.01 | 0.26 | 0.03 | 92 | 1009.0 |
| 20260510082518 | 53 | 296 | 0.0 | 2.6 | 0.01 | 0.26 | 0.03 | 92 | 1009.1 |
| 20260510082018 | 53 | 296 | 0.0 | 0.9 | 0.01 | 0.26 | 0.03 | 92 | 1009.1 |
| 20260510081532 | 53 | 296 | 0.0 | 3.5 | 0.01 | 0.26 | 0.03 | 92 | 1009.1 |
| 20260510081019 | 53 | 296 | 0.9 | 3.5 | 0.01 | 0.26 | 0.03 | 93 | 1008.9 |
| 20260510080517 | 53 | 281 | 1.7 | 3.5 | 0.00 | 0.25 | 0.02 | 93 | 1008.9 |
| 20260510080016 | 53 | 281 | 0.9 | 3.5 | 0.00 | 0.25 | 0.02 | 93 | 1008.9 |
| 20260510075519 | 53 | 275 | 1.7 | 3.5 | 0.00 | 0.25 | 0.02 | 93 | 1008.9 |
| 20260510075016 | 53 | 317 | 0.0 | 2.6 | 0.00 | 0.25 | 0.02 | 93 | 1009.0 |
| 20260510074516 | 53 | 284 | 0.0 | 2.6 | 0.00 | 0.25 | 0.02 | 93 | 1008.9 |
| 20260510074017 | 53 | 279 | 0.9 | 2.6 | 0.00 | 0.25 | 0.02 | 92 | 1008.8 |
| 20260510073515 | 53 | 275 | 0.0 | 4.3 | 0.00 | 0.25 | 0.02 | 92 | 1008.9 |
| 20260510073016 | 53 | 299 | 0.9 | 6.1 | 0.00 | 0.25 | 0.02 | 92 | 1008.8 |
| 20260510072515 | 53 | 342 | 2.6 | 6.1 | 0.00 | 0.25 | 0.02 | 92 | 1008.9 |
| 20260510072015 | 53 | 238 | 1.7 | 3.5 | 0.00 | 0.25 | 0.02 | 92 | 1008.8 |
| 20260510071514 | 53 | 238 | 0.9 | 4.3 | 0.00 | 0.25 | 0.02 | 92 | 1008.6 |
| 20260510071013 | 53 | 238 | 2.6 | 4.3 | 0.00 | 0.25 | 0.02 | 92 | 1008.7 |
| 20260510070515 | 53 | 238 | 1.7 | 3.5 | 0.00 | 0.25 | 0.02 | 92 | 1008.5 |
| 20260510070013 | 53 | 238 | 1.7 | 4.3 | 0.00 | 0.25 | 0.02 | 92 | 1008.4 |
| 20260510065512 | 53 | 238 | 1.7 | 4.3 | 0.00 | 0.25 | 0.02 | 92 | 1008.4 |
| 20260510065012 | 53 | 202 | 2.6 | 6.1 | 0.00 | 0.25 | 0.02 | 93 | 1008.3 |
| 20260510064513 | 53 | 236 | 2.6 | 4.3 | 0.00 | 0.25 | 0.02 | 93 | 1008.4 |
| 20260510064010 | 53 | 230 | 1.7 | 5.2 | 0.00 | 0.25 | 0.02 | 93 | 1008.4 |
| 20260510063514 | 53 | 229 | 0.9 | 5.2 | 0.00 | 0.25 | 0.02 | 93 | 1008.4 |
| 20260510063013 | 53 | 269 | 1.7 | 3.5 | 0.00 | 0.25 | 0.02 | 93 | 1008.5 |
| 20260510062508 | 54 | 263 | 1.7 | 6.1 | 0.00 | 0.25 | 0.02 | 93 | 1008.4 |
| 20260510062011 | 54 | 241 | 0.9 | 6.1 | 0.00 | 0.25 | 0.02 | 94 | 1008.4 |
| 20260510061512 | 54 | 245 | 1.7 | 4.3 | 0.00 | 0.25 | 0.02 | 93 | 1008.3 |
| 20260510061007 | 54 | 244 | 2.6 | 4.3 | 0.01 | 0.25 | 0.02 | 93 | 1008.4 |
| 20260510060513 | 54 | 200 | 1.7 | 3.5 | 0.01 | 0.25 | 0.02 | 93 | 1008.3 |
| 20260510060007 | 54 | 248 | 1.7 | 3.5 | 0.02 | 0.25 | 0.02 | 93 | 1008.3 |
| 20260510055506 | 54 | 238 | 1.7 | 4.3 | 0.02 | 0.25 | 0.02 | 92 | 1008.3 |
| 20260510055007 | 54 | 254 | 1.7 | 3.5 | 0.02 | 0.25 | 0.02 | 92 | 1008.4 |
| 20260510054506 | 55 | 254 | 0.0 | 2.6 | 0.02 | 0.25 | 0.02 | 92 | 1008.3 |
| 20260510054005 | 55 | 254 | 0.9 | 4.3 | 0.02 | 0.25 | 0.02 | 92 | 1008.5 |
| 20260510053507 | 55 | 207 | 1.7 | 4.3 | 0.02 | 0.25 | 0.02 | 92 | 1008.6 |
| 20260510053005 | 55 | 213 | 1.7 | 4.3 | 0.02 | 0.25 | 0.02 | 92 | 1008.7 |
| 20260510052504 | 55 | 355 | 1.7 | 7.0 | 0.02 | 0.25 | 0.02 | 92 | 1008.9 |
| 20260510052004 | 55 | 277 | 2.6 | 9.6 | 0.02 | 0.25 | 0.02 | 93 | 1008.8 |
| 20260510051514 | 55 | 278 | 3.5 | 9.6 | 0.02 | 0.25 | 0.02 | 93 | 1009.1 |
| 20260510051002 | 55 | 242 | 4.3 | 10.4 | 0.01 | 0.24 | 0.01 | 94 | 1009.3 |
| 20260510050502 | 55 | 238 | 3.5 | 11.3 | 0.00 | 0.23 | 0.00 | 95 | 1009.3 |
| 20260510050000 | 54 | 296 | 7.0 | 11.3 | 0.00 | 0.23 | 0.00 | 95 | 1009.5 |
| 20260510045559 | 54 | 5 | 1.7 | 4.3 | 0.00 | 0.24 | 0.00 | 95 | 1009.5 |
| 20260510045058 | 54 | 204 | 0.9 | 2.6 | 0.00 | 0.24 | 0.00 | 95 | 1008.6 |
| 20260510044557 | 54 | 204 | 0.9 | 3.5 | 0.00 | 0.24 | 0.00 | 94 | 1008.2 |
| 20260510044056 | 54 | 204 | 1.7 | 3.5 | 0.00 | 0.24 | 0.00 | 95 | 1008.2 |
| 20260510043556 | 54 | 204 | 1.7 | 2.6 | 0.00 | 0.24 | 0.00 | 95 | 1008.1 |
| 20260510043056 | 54 | 205 | 1.7 | 3.5 | 0.00 | 0.24 | 0.00 | 95 | 1008.1 |
| 20260510042558 | 55 | 204 | 1.7 | 4.3 | 0.00 | 0.24 | 0.00 | 95 | 1008.1 |
| 20260510042057 | 55 | 204 | 2.6 | 4.3 | 0.00 | 0.24 | 0.00 | 95 | 1008.1 |
| 20260510041627 | 55 | 240 | 1.7 | 3.5 | 0.00 | 0.24 | 0.00 | 94 | 1008.2 |
| 20260510041053 | 55 | 9 | 0.9 | 1.7 | 0.01 | 0.24 | 0.00 | 94 | 1008.2 |
| 20260510040554 | 55 | 9 | 0.0 | 0.0 | 0.01 | 0.24 | 0.00 | 94 | 1008.2 |
| 20260510040051 | 55 | 9 | 0.0 | 4.3 | 0.01 | 0.24 | 0.00 | 94 | 1008.2 |
| 20260510035552 | 55 | 9 | 2.6 | 4.3 | 0.01 | 0.24 | 0.24 | 94 | 1008.3 |
| 20260510035051 | 55 | 9 | 0.9 | 5.2 | 0.01 | 0.24 | 0.24 | 94 | 1008.1 |
| 20260510034557 | 55 | 9 | 1.7 | 5.2 | 0.01 | 0.24 | 0.24 | 94 | 1008.3 |
| 20260510034055 | 55 | 35 | 0.0 | 3.5 | 0.01 | 0.24 | 0.24 | 94 | 1008.0 |
| 20260510033551 | 55 | 35 | 0.0 | 7.8 | 0.01 | 0.24 | 0.24 | 94 | 1008.0 |
| 20260510033102 | 55 | 48 | 4.3 | 7.8 | 0.01 | 0.24 | 0.24 | 94 | 1008.1 |
| 20260510032550 | 55 | 28 | 4.3 | 7.0 | 0.01 | 0.24 | 0.24 | 94 | 1007.9 |
| 20260510032052 | 55 | 5 | 3.5 | 5.2 | 0.01 | 0.24 | 0.24 | 94 | 1007.7 |
| 20260510031555 | 55 | 304 | 1.7 | 2.6 | 0.01 | 0.24 | 0.24 | 94 | 1007.6 |
| 20260510031053 | 55 | 205 | 0.0 | 1.7 | 0.00 | 0.23 | 0.23 | 94 | 1007.8 |
| 20260510030549 | 55 | 205 | 0.0 | 0.9 | 0.00 | 0.23 | 0.23 | 94 | 1007.5 |
| 20260510030049 | 55 | 205 | 0.0 | 0.0 | 0.00 | 0.23 | 0.23 | 94 | 1007.5 |
| 20260510025549 | 55 | 205 | 0.0 | 0.9 | 0.00 | 0.24 | 0.23 | 94 | 1007.3 |
| 20260510025049 | 55 | 205 | 0.0 | 1.7 | 0.00 | 0.24 | 0.23 | 94 | 1007.5 |
| 20260510024606 | 55 | 205 | 0.0 | 1.7 | 0.00 | 0.24 | 0.23 | 94 | 1007.7 |
| 20260510024048 | 55 | 205 | 0.0 | 2.6 | 0.00 | 0.24 | 0.23 | 94 | 1007.5 |
| 20260510023549 | 55 | 205 | 0.0 | 2.6 | 0.00 | 0.24 | 0.23 | 94 | 1007.4 |
| 20260510023052 | 55 | 205 | 0.0 | 1.7 | 0.00 | 0.24 | 0.23 | 93 | 1007.7 |
| 20260510022548 | 55 | 205 | 0.9 | 1.7 | 0.00 | 0.24 | 0.23 | 93 | 1007.9 |
| 20260510022047 | 55 | 205 | 0.0 | 2.6 | 0.00 | 0.24 | 0.23 | 93 | 1007.8 |
| 20260510021548 | 55 | 205 | 0.0 | 2.6 | 0.02 | 0.24 | 0.23 | 93 | 1007.6 |
| 20260510021047 | 55 | 205 | 0.9 | 3.5 | 0.06 | 0.24 | 0.23 | 92 | 1007.4 |
| 20260510020548 | 55 | 205 | 0.0 | 4.3 | 0.12 | 0.24 | 0.23 | 92 | 1007.6 |
| 20260510020048 | 55 | 269 | 0.9 | 2.6 | 0.15 | 0.24 | 0.23 | 92 | 1007.8 |
| 20260510015548 | 55 | 269 | 0.9 | 3.5 | 0.17 | 0.24 | 0.23 | 91 | 1007.9 |
| 20260510015047 | 56 | 269 | 1.7 | 3.5 | 0.17 | 0.24 | 0.23 | 91 | 1007.6 |
| 20260510014601 | 56 | 269 | 0.9 | 2.6 | 0.17 | 0.24 | 0.23 | 91 | 1007.7 |
| 20260510014047 | 56 | 269 | 0.0 | 2.6 | 0.17 | 0.24 | 0.23 | 90 | 1007.7 |
| 20260510013547 | 56 | 269 | 0.9 | 2.6 | 0.17 | 0.24 | 0.23 | 90 | 1007.6 |
| 20260510013100 | 56 | 269 | 0.9 | 5.2 | 0.17 | 0.24 | 0.23 | 90 | 1007.6 |
| 20260510012550 | 56 | 343 | 0.9 | 3.5 | 0.17 | 0.24 | 0.23 | 89 | 1007.5 |
| 20260510012046 | 56 | 321 | 0.9 | 6.1 | 0.17 | 0.24 | 0.23 | 88 | 1007.6 |
| 20260510011546 | 57 | 204 | 0.9 | 7.0 | 0.15 | 0.22 | 0.21 | 86 | 1007.7 |
| 20260510011048 | 57 | 232 | 1.7 | 9.6 | 0.11 | 0.18 | 0.17 | 85 | 1007.7 |
| 20260510010544 | 58 | 16 | 3.5 | 13.0 | 0.05 | 0.12 | 0.11 | 82 | 1007.6 |
| 20260510010045 | 59 | 302 | 2.6 | 14.8 | 0.02 | 0.09 | 0.08 | 78 | 1007.2 |
| 20260510005544 | 61 | 355 | 7.0 | 18.2 | 0.00 | 0.08 | 0.06 | 72 | 1006.9 |
| 20260510005047 | 64 | 41 | 10.4 | 18.2 | 0.00 | 0.08 | 0.06 | 65 | 1006.4 |
| 20260510004548 | 64 | 327 | 4.3 | 9.6 | 0.00 | 0.08 | 0.06 | 61 | 1005.5 |
| 20260510004043 | 64 | 229 | 3.5 | 9.6 | 0.00 | 0.08 | 0.06 | 61 | 1005.1 |
| 20260510003544 | 64 | 264 | 1.7 | 12.2 | 0.00 | 0.08 | 0.06 | 61 | 1005.1 |
| 20260510003044 | 65 | 227 | 3.5 | 12.2 | 0.00 | 0.08 | 0.06 | 60 | 1005.2 |
| 20260510002543 | 65 | 196 | 4.3 | 10.4 | 0.00 | 0.08 | 0.06 | 60 | 1005.3 |
| 20260510002042 | 65 | 227 | 4.3 | 11.3 | 0.00 | 0.08 | 0.06 | 61 | 1005.4 |
| 20260510001542 | 65 | 221 | 5.2 | 13.0 | 0.00 | 0.08 | 0.06 | 60 | 1005.4 |
| 20260510001042 | 65 | 232 | 5.2 | 13.0 | 0.00 | 0.08 | 0.06 | 60 | 1005.4 |
| 20260510000543 | 65 | 221 | 7.0 | 12.2 | 0.00 | 0.08 | 0.06 | 60 | 1005.4 |
| 20260510000042 | 65 | 207 | 5.2 | 12.2 | 0.00 | 0.08 | 0.06 | 60 | 1005.3 |
| 20260509235541 | 65 | 259 | 5.2 | 12.2 | 0.00 | 0.08 | 0.06 | 60 | 1005.2 |
| 20260509235045 | 65 | 248 | 6.1 | 14.8 | 0.00 | 0.08 | 0.06 | 60 | 1005.2 |
| 20260509234541 | 65 | 250 | 7.8 | 16.5 | 0.00 | 0.08 | 0.06 | 60 | 1005.2 |
| 20260509234041 | 66 | 296 | 5.2 | 18.2 | 0.00 | 0.08 | 0.06 | 60 | 1005.1 |
| 20260509233542 | 66 | 251 | 8.7 | 18.2 | 0.00 | 0.08 | 0.06 | 60 | 1005.1 |
| 20260509233043 | 66 | 205 | 8.7 | 15.6 | 0.00 | 0.08 | 0.06 | 60 | 1005.0 |
| 20260509232540 | 66 | 254 | 5.2 | 16.5 | 0.00 | 0.08 | 0.06 | 59 | 1005.1 |
| 20260509232040 | 66 | 302 | 3.5 | 16.5 | 0.00 | 0.08 | 0.06 | 59 | 1005.0 |
| 20260509231539 | 67 | 226 | 5.2 | 18.2 | 0.00 | 0.08 | 0.06 | 59 | 1005.0 |
| 20260509231041 | 67 | 228 | 7.8 | 18.2 | 0.00 | 0.08 | 0.06 | 58 | 1005.0 |
| 20260509230538 | 67 | 220 | 6.1 | 13.0 | 0.00 | 0.08 | 0.06 | 58 | 1005.0 |
| 20260509230039 | 67 | 173 | 7.0 | 16.5 | 0.00 | 0.08 | 0.06 | 58 | 1004.9 |
| 20260509225541 | 67 | 252 | 8.7 | 16.5 | 0.00 | 0.08 | 0.06 | 57 | 1004.9 |
| 20260509225037 | 67 | 254 | 4.3 | 15.6 | 0.00 | 0.08 | 0.06 | 59 | 1004.9 |
| 20260509224538 | 67 | 205 | 8.7 | 16.5 | 0.00 | 0.08 | 0.06 | 57 | 1004.9 |
| 20260509224038 | 67 | 212 | 10.4 | 19.1 | 0.00 | 0.08 | 0.06 | 57 | 1004.9 |
| 20260509223537 | 67 | 279 | 7.0 | 19.1 | 0.00 | 0.08 | 0.06 | 58 | 1004.9 |
| 20260509223043 | 67 | 223 | 7.0 | 16.5 | 0.00 | 0.08 | 0.06 | 59 | 1005.0 |
| 20260509222540 | 67 | 211 | 7.0 | 14.8 | 0.00 | 0.08 | 0.06 | 59 | 1005.1 |
| 20260509222036 | 67 | 242 | 8.7 | 16.5 | 0.00 | 0.08 | 0.06 | 58 | 1005.0 |
| 20260509221536 | 67 | 238 | 9.6 | 17.4 | 0.00 | 0.08 | 0.06 | 59 | 1005.0 |
| 20260509221034 | 67 | 210 | 7.0 | 20.9 | 0.00 | 0.08 | 0.06 | 59 | 1005.0 |
| 20260509220534 | 67 | 236 | 8.7 | 20.9 | 0.00 | 0.08 | 0.06 | 59 | 1005.1 |
| 20260509220034 | 67 | 245 | 7.0 | 14.8 | 0.00 | 0.08 | 0.06 | 59 | 1005.0 |
| 20260509215535 | 67 | 230 | 7.8 | 14.8 | 0.00 | 0.08 | 0.06 | 59 | 1005.0 |
| 20260509215033 | 67 | 254 | 6.1 | 12.2 | 0.00 | 0.08 | 0.06 | 59 | 1005.1 |
| 20260509214532 | 67 | 202 | 4.3 | 13.9 | 0.00 | 0.08 | 0.06 | 60 | 1005.2 |
| 20260509214031 | 67 | 234 | 7.8 | 16.5 | 0.00 | 0.08 | 0.06 | 59 | 1005.2 |
| 20260509213531 | 67 | 241 | 9.6 | 16.5 | 0.00 | 0.08 | 0.06 | 58 | 1005.2 |
| 20260509213031 | 67 | 234 | 7.0 | 13.9 | 0.00 | 0.08 | 0.06 | 59 | 1005.2 |
| 20260509212529 | 67 | 259 | 7.0 | 15.6 | 0.00 | 0.08 | 0.06 | 58 | 1005.2 |
| 20260509212028 | 67 | 266 | 7.0 | 17.4 | 0.00 | 0.08 | 0.06 | 59 | 1005.3 |
| 20260509211530 | 67 | 215 | 8.7 | 17.4 | 0.00 | 0.08 | 0.06 | 59 | 1005.5 |
| 20260509211028 | 67 | 255 | 8.7 | 14.8 | 0.00 | 0.08 | 0.06 | 59 | 1005.6 |
| 20260509210528 | 67 | 262 | 6.1 | 17.4 | 0.00 | 0.08 | 0.06 | 61 | 1005.6 |
| 20260509210036 | 66 | 219 | 7.0 | 15.6 | 0.00 | 0.08 | 0.06 | 60 | 1005.7 |
| 20260509205527 | 67 | 205 | 7.8 | 15.6 | 0.00 | 0.08 | 0.06 | 58 | 1005.8 |
| 20260509205030 | 67 | 266 | 4.3 | 13.9 | 0.00 | 0.08 | 0.06 | 61 | 1005.7 |
| 20260509204526 | 67 | 253 | 4.3 | 17.4 | 0.00 | 0.08 | 0.06 | 61 | 1005.6 |
| 20260509204026 | 67 | 237 | 7.0 | 17.4 | 0.00 | 0.08 | 0.06 | 60 | 1005.6 |
| 20260509203525 | 67 | 228 | 5.2 | 16.5 | 0.00 | 0.08 | 0.06 | 62 | 1005.6 |
| 20260509203025 | 66 | 200 | 5.2 | 15.6 | 0.00 | 0.08 | 0.06 | 62 | 1005.7 |
| 20260509202524 | 66 | 213 | 6.1 | 17.4 | 0.00 | 0.08 | 0.06 | 61 | 1005.8 |
| 20260509202022 | 67 | 201 | 7.0 | 13.0 | 0.00 | 0.08 | 0.06 | 62 | 1005.8 |
| 20260509201526 | 66 | 266 | 6.1 | 20.9 | 0.00 | 0.08 | 0.06 | 60 | 1005.9 |
| 20260509201024 | 66 | 275 | 10.4 | 20.9 | 0.00 | 0.08 | 0.06 | 59 | 1005.9 |
| 20260509200620 | 66 | 244 | 9.6 | 15.6 | 0.00 | 0.08 | 0.06 | 60 | 1006.0 |
| 20260509200019 | 66 | 264 | 3.5 | 13.0 | 0.00 | 0.08 | 0.06 | 62 | 1006.1 |
| 20260509195518 | 66 | 216 | 3.5 | 14.8 | 0.00 | 0.08 | 0.06 | 62 | 1006.2 |
| 20260509195017 | 66 | 205 | 7.0 | 14.8 | 0.00 | 0.08 | 0.06 | 64 | 1006.4 |
| 20260509194516 | 66 | 241 | 8.7 | 14.8 | 0.00 | 0.08 | 0.06 | 63 | 1006.4 |
| 20260509194016 | 66 | 274 | 7.8 | 16.5 | 0.00 | 0.08 | 0.06 | 63 | 1006.5 |
| 20260509193515 | 65 | 217 | 8.7 | 16.5 | 0.00 | 0.08 | 0.06 | 62 | 1006.5 |
| 20260509193014 | 65 | 247 | 7.8 | 19.1 | 0.00 | 0.08 | 0.06 | 63 | 1006.6 |
| 20260509192512 | 65 | 230 | 9.6 | 19.1 | 0.00 | 0.08 | 0.06 | 63 | 1006.6 |
| 20260509192011 | 65 | 180 | 7.8 | 14.8 | 0.00 | 0.08 | 0.06 | 65 | 1006.6 |
| 20260509191510 | 65 | 223 | 7.0 | 13.9 | 0.00 | 0.08 | 0.06 | 66 | 1006.7 |
| 20260509191010 | 65 | 251 | 8.7 | 13.9 | 0.00 | 0.08 | 0.06 | 67 | 1006.8 |
| 20260509190509 | 65 | 249 | 7.0 | 13.0 | 0.00 | 0.08 | 0.06 | 67 | 1006.8 |
| 20260509190009 | 65 | 253 | 7.0 | 13.0 | 0.00 | 0.08 | 0.06 | 65 | 1006.9 |
| 20260509185508 | 64 | 236 | 7.0 | 17.4 | 0.00 | 0.08 | 0.06 | 66 | 1006.7 |
| 20260509185007 | 65 | 261 | 5.2 | 17.4 | 0.00 | 0.08 | 0.06 | 69 | 1006.9 |
| 20260509184514 | 65 | 257 | 7.8 | 14.8 | 0.00 | 0.08 | 0.06 | 69 | 1007.0 |
| 20260509184005 | 64 | 248 | 4.3 | 13.9 | 0.00 | 0.08 | 0.06 | 70 | 1007.0 |
| 20260509183504 | 64 | 231 | 7.0 | 13.9 | 0.00 | 0.08 | 0.06 | 69 | 1007.1 |
| 20260509183004 | 64 | 232 | 6.1 | 15.6 | 0.00 | 0.08 | 0.06 | 71 | 1007.1 |
| 20260509182506 | 64 | 226 | 7.0 | 15.6 | 0.00 | 0.08 | 0.06 | 72 | 1007.1 |
| 20260509182002 | 63 | 178 | 6.1 | 15.6 | 0.00 | 0.08 | 0.06 | 73 | 1007.1 |
| 20260509181600 | 63 | 239 | 8.7 | 15.6 | 0.00 | 0.08 | 0.06 | 71 | 1007.0 |
| 20260509181059 | 63 | 277 | 7.0 | 20.0 | 0.00 | 0.08 | 0.06 | 73 | 1007.1 |
| 20260509180559 | 63 | 239 | 9.6 | 20.0 | 0.00 | 0.08 | 0.06 | 73 | 1007.2 |
| 20260509180058 | 63 | 260 | 7.8 | 15.6 | 0.00 | 0.08 | 0.06 | 74 | 1007.1 |
| 20260509175558 | 63 | 215 | 8.7 | 15.6 | 0.00 | 0.08 | 0.06 | 75 | 1007.1 |
| 20260509175056 | 62 | 258 | 7.8 | 17.4 | 0.00 | 0.08 | 0.06 | 75 | 1007.1 |
| 20260509174555 | 62 | 249 | 8.7 | 19.1 | 0.00 | 0.08 | 0.06 | 75 | 1007.1 |
| 20260509174054 | 61 | 236 | 7.0 | 12.2 | 0.00 | 0.08 | 0.06 | 79 | 1007.1 |
| 20260509173552 | 61 | 185 | 5.2 | 11.3 | 0.00 | 0.08 | 0.06 | 78 | 1007.2 |
| 20260509173116 | 61 | 192 | 3.5 | 14.8 | 0.00 | 0.08 | 0.06 | 80 | 1007.5 |
| 20260509172551 | 61 | 181 | 7.0 | 12.2 | 0.00 | 0.08 | 0.06 | 80 | 1007.4 |
| 20260509172049 | 61 | 223 | 5.2 | 8.7 | 0.00 | 0.08 | 0.06 | 81 | 1007.4 |
| 20260509171549 | 60 | 240 | 3.5 | 10.4 | 0.00 | 0.08 | 0.06 | 82 | 1007.6 |
| 20260509171047 | 60 | 249 | 3.5 | 11.3 | 0.00 | 0.08 | 0.06 | 82 | 1007.5 |
| 20260509170551 | 60 | 219 | 5.2 | 12.2 | 0.00 | 0.08 | 0.06 | 83 | 1007.5 |
| 20260509170055 | 60 | 290 | 2.6 | 14.8 | 0.00 | 0.08 | 0.06 | 86 | 1007.6 |
| 20260509165545 | 59 | 182 | 3.5 | 14.8 | 0.00 | 0.08 | 0.06 | 84 | 1007.6 |
| 20260509165044 | 59 | 198 | 5.2 | 12.2 | 0.00 | 0.08 | 0.06 | 85 | 1007.6 |
| 20260509164545 | 58 | 217 | 6.1 | 12.2 | 0.00 | 0.08 | 0.06 | 84 | 1007.7 |
| 20260509164045 | 59 | 178 | 4.3 | 10.4 | 0.00 | 0.08 | 0.06 | 84 | 1007.5 |
| 20260509163543 | 59 | 199 | 5.2 | 10.4 | 0.00 | 0.08 | 0.06 | 83 | 1007.5 |
| 20260509163045 | 59 | 232 | 5.2 | 8.7 | 0.00 | 0.08 | 0.06 | 85 | 1007.4 |
| 20260509162542 | 59 | 206 | 2.6 | 8.7 | 0.00 | 0.08 | 0.06 | 86 | 1007.4 |
| 20260509162039 | 59 | 251 | 1.7 | 10.4 | 0.00 | 0.08 | 0.06 | 87 | 1007.5 |
| 20260509161542 | 58 | 248 | 3.5 | 9.6 | 0.00 | 0.08 | 0.06 | 87 | 1007.5 |
| 20260509161040 | 58 | 241 | 5.2 | 10.4 | 0.00 | 0.08 | 0.06 | 87 | 1007.5 |
| 20260509160537 | 58 | 208 | 2.6 | 10.4 | 0.00 | 0.08 | 0.06 | 87 | 1007.5 |
| 20260509160037 | 57 | 227 | 4.3 | 10.4 | 0.00 | 0.08 | 0.06 | 86 | 1007.5 |
| 20260509155535 | 57 | 267 | 4.3 | 9.6 | 0.00 | 0.08 | 0.06 | 87 | 1007.5 |
| 20260509155034 | 56 | 255 | 6.1 | 13.0 | 0.00 | 0.08 | 0.06 | 87 | 1007.5 |
| 20260509154534 | 56 | 263 | 7.8 | 13.0 | 0.00 | 0.08 | 0.06 | 86 | 1007.4 |
| 20260509154035 | 56 | 260 | 7.0 | 12.2 | 0.00 | 0.08 | 0.06 | 87 | 1007.3 |
| 20260509153533 | 57 | 257 | 6.1 | 12.2 | 0.00 | 0.08 | 0.06 | 88 | 1007.3 |
| 20260509153035 | 56 | 270 | 6.1 | 12.2 | 0.00 | 0.08 | 0.06 | 89 | 1007.2 |
| 20260509152531 | 56 | 260 | 5.2 | 11.3 | 0.00 | 0.08 | 0.06 | 90 | 1007.2 |
| 20260509152030 | 56 | 257 | 5.2 | 9.6 | 0.00 | 0.08 | 0.06 | 92 | 1007.3 |
| 20260509151528 | 55 | 244 | 4.3 | 13.9 | 0.00 | 0.08 | 0.06 | 92 | 1007.2 |
| 20260509151032 | 55 | 271 | 4.3 | 13.9 | 0.00 | 0.08 | 0.06 | 93 | 1007.2 |
| 20260509150526 | 55 | 280 | 3.5 | 8.7 | 0.00 | 0.08 | 0.06 | 93 | 1007.1 |
| 20260509150026 | 54 | 213 | 3.5 | 8.7 | 0.00 | 0.08 | 0.06 | 93 | 1007.2 |
| 20260509145526 | 54 | 246 | 4.3 | 12.2 | 0.00 | 0.08 | 0.06 | 94 | 1007.2 |
| 20260509145026 | 54 | 239 | 5.2 | 12.2 | 0.00 | 0.08 | 0.06 | 94 | 1007.2 |
| 20260509144525 | 54 | 194 | 3.5 | 12.2 | 0.00 | 0.08 | 0.06 | 95 | 1007.1 |
| 20260509144024 | 54 | 232 | 4.3 | 8.7 | 0.00 | 0.08 | 0.06 | 96 | 1007.2 |
| 20260509143529 | 54 | 252 | 5.2 | 8.7 | 0.00 | 0.08 | 0.06 | 96 | 1007.2 |
| 20260509143021 | 53 | 230 | 2.6 | 7.0 | 0.00 | 0.08 | 0.06 | 96 | 1007.2 |
| 20260509142519 | 53 | 234 | 3.5 | 9.6 | 0.00 | 0.08 | 0.06 | 96 | 1007.3 |
| 20260509142019 | 53 | 223 | 2.6 | 9.6 | 0.00 | 0.08 | 0.06 | 96 | 1007.4 |
| 20260509141519 | 53 | 237 | 2.6 | 9.6 | 0.00 | 0.08 | 0.06 | 96 | 1007.4 |
| 20260509141019 | 53 | 240 | 6.1 | 9.6 | 0.00 | 0.08 | 0.06 | 96 | 1007.4 |
| 20260509140519 | 53 | 246 | 5.2 | 8.7 | 0.00 | 0.08 | 0.06 | 96 | 1007.3 |
| 20260509140018 | 53 | 227 | 1.7 | 8.7 | 0.00 | 0.08 | 0.06 | 97 | 1007.2 |
| 20260509135516 | 52 | 250 | 2.6 | 8.7 | 0.00 | 0.08 | 0.06 | 96 | 1007.2 |
| 20260509135015 | 52 | 232 | 1.7 | 5.2 | 0.00 | 0.08 | 0.06 | 96 | 1007.3 |
| 20260509134514 | 52 | 233 | 1.7 | 7.0 | 0.00 | 0.08 | 0.06 | 96 | 1007.2 |
| 20260509134013 | 52 | 246 | 1.7 | 7.8 | 0.00 | 0.08 | 0.06 | 96 | 1007.4 |
| 20260509133512 | 52 | 205 | 3.5 | 7.8 | 0.00 | 0.08 | 0.06 | 96 | 1007.5 |
| 20260509133011 | 52 | 205 | 1.7 | 7.8 | 0.00 | 0.08 | 0.06 | 96 | 1007.5 |
| 20260509132510 | 51 | 241 | 3.5 | 7.8 | 0.00 | 0.08 | 0.06 | 96 | 1007.6 |
| 20260509132007 | 51 | 248 | 2.6 | 6.1 | 0.00 | 0.08 | 0.06 | 96 | 1007.7 |
| 20260509131506 | 51 | 267 | 2.6 | 6.1 | 0.00 | 0.08 | 0.06 | 96 | 1007.6 |
| 20260509131004 | 51 | 220 | 1.7 | 9.6 | 0.00 | 0.08 | 0.06 | 96 | 1007.6 |
| 20260509130504 | 51 | 252 | 3.5 | 9.6 | 0.00 | 0.08 | 0.06 | 96 | 1007.7 |
| 20260509130009 | 51 | 228 | 2.6 | 7.0 | 0.00 | 0.08 | 0.06 | 96 | 1007.6 |
| 20260509125503 | 51 | 252 | 2.6 | 7.8 | 0.00 | 0.08 | 0.06 | 96 | 1007.7 |
| 20260509125002 | 51 | 240 | 3.5 | 7.8 | 0.00 | 0.08 | 0.06 | 96 | 1007.8 |
| 20260509124502 | 51 | 255 | 2.6 | 6.1 | 0.00 | 0.08 | 0.06 | 96 | 1007.7 |
| 20260509124003 | 51 | 289 | 1.7 | 8.7 | 0.00 | 0.08 | 0.06 | 96 | 1007.6 |
| 20260509123503 | 51 | 232 | 3.5 | 10.4 | 0.00 | 0.08 | 0.06 | 96 | 1007.6 |
| 20260509123001 | 51 | 244 | 2.6 | 7.8 | 0.00 | 0.08 | 0.06 | 96 | 1007.6 |
| 20260509122501 | 51 | 247 | 3.5 | 8.7 | 0.00 | 0.08 | 0.06 | 96 | 1007.5 |
| 20260509122103 | 50 | 230 | 3.5 | 8.7 | 0.00 | 0.08 | 0.06 | 96 | 1007.6 |
| 20260509121600 | 50 | 217 | 3.5 | 10.4 | 0.01 | 0.08 | 0.06 | 96 | 1007.7 |
| 20260509121059 | 50 | 234 | 3.5 | 10.4 | 0.01 | 0.08 | 0.06 | 96 | 1007.7 |
| 20260509120559 | 50 | 205 | 3.5 | 10.4 | 0.01 | 0.08 | 0.06 | 96 | 1007.7 |
| 20260509120058 | 50 | 257 | 3.5 | 10.4 | 0.01 | 0.08 | 0.06 | 96 | 1007.7 |
| 20260509115556 | 50 | 210 | 3.5 | 7.8 | 0.01 | 0.08 | 0.06 | 95 | 1007.8 |
| 20260509115056 | 50 | 244 | 4.3 | 8.7 | 0.02 | 0.08 | 0.06 | 95 | 1007.8 |
| 20260509114626 | 50 | 255 | 1.7 | 7.8 | 0.02 | 0.08 | 0.06 | 95 | 1007.8 |
| 20260509114055 | 50 | 227 | 2.6 | 7.8 | 0.03 | 0.08 | 0.06 | 95 | 1007.8 |
| 20260509113554 | 50 | 229 | 1.7 | 6.1 | 0.03 | 0.08 | 0.06 | 95 | 1007.7 |
| 20260509113119 | 50 | 245 | 3.5 | 6.1 | 0.03 | 0.08 | 0.06 | 95 | 1007.7 |
| 20260509112555 | 50 | 244 | 1.7 | 10.4 | 0.03 | 0.08 | 0.06 | 95 | 1007.7 |
| 20260509112053 | 50 | 221 | 4.3 | 10.4 | 0.03 | 0.08 | 0.06 | 95 | 1007.8 |
| 20260509111552 | 50 | 186 | 2.6 | 6.1 | 0.02 | 0.07 | 0.05 | 95 | 1007.7 |
| 20260509111052 | 50 | 233 | 2.6 | 8.7 | 0.02 | 0.07 | 0.05 | 95 | 1007.6 |
| 20260509110551 | 50 | 211 | 2.6 | 8.7 | 0.02 | 0.07 | 0.05 | 95 | 1007.6 |
| 20260509110058 | 50 | 236 | 3.5 | 11.3 | 0.02 | 0.07 | 0.05 | 95 | 1007.5 |
| 20260509105551 | 50 | 216 | 4.3 | 11.3 | 0.01 | 0.06 | 0.04 | 94 | 1007.5 |
| 20260509105049 | 50 | 204 | 5.2 | 10.4 | 0.01 | 0.06 | 0.04 | 94 | 1007.4 |